Time;durP1;ratioP1;P1;durP2;ratioP2;P2;SDS_P1;SDS_P2;PMS_P1;PMS_P2;Temp;Humidity;BMP_temperature;BMP_pressure;BME280_temperature;BME280_humidity;BME280_pressure;Samples;Min_cycle;Max_cycle;Signal;HPM_P1;HPM_P2
2021/08/27 00:01:49;;;;;;;51.28;18.38;;;10.70;99.90;;;;;;5071625;28;20037;-76
2021/08/27 00:04:14;;;;;;;55.83;16.65;;;10.70;99.90;;;;;;5071651;28;20064;-77
2021/08/27 00:06:40;;;;;;;128.95;23.23;;;10.80;99.90;;;;;;5071500;28;20036;-76
2021/08/27 00:09:06;;;;;;;38.53;17.60;;;10.80;99.90;;;;;;5058891;28;20041;-77
2021/08/27 00:11:31;;;;;;;108.22;23.17;;;10.80;99.90;;;;;;5095824;27;20050;-76
2021/08/27 00:13:57;;;;;;;208.32;33.67;;;10.80;99.90;;;;;;5177496;27;20479;-77
2021/08/27 00:16:23;;;;;;;80.40;20.38;;;10.80;99.90;;;;;;5158600;27;20030;-76
2021/08/27 00:18:48;;;;;;;71.95;18.58;;;10.80;99.90;;;;;;5177906;27;20038;-76
2021/08/27 00:21:14;;;;;;;42.58;17.95;;;10.80;99.90;;;;;;5177227;27;20034;-76
2021/08/27 00:23:40;;;;;;;88.15;23.25;;;10.80;99.90;;;;;;5131035;27;20067;-76
2021/08/27 00:26:05;;;;;;;73.13;24.85;;;10.80;99.90;;;;;;5071304;28;20053;-76
2021/08/27 00:28:31;;;;;;;70.22;23.50;;;10.90;99.90;;;;;;5052990;28;20469;-77
2021/08/27 00:30:57;;;;;;;54.55;20.88;;;10.90;99.90;;;;;;5071138;28;20036;-76
2021/08/27 00:33:24;;;;;;;53.85;22.95;;;11.00;99.90;;;;;;5053218;28;20431;-77
2021/08/27 00:35:50;;;;;;;66.63;23.48;;;11.00;99.90;;;;;;5071053;28;20032;-76
2021/08/27 00:38:16;;;;;;;52.25;22.65;;;11.00;99.90;;;;;;5071041;28;20513;-76
2021/08/27 00:40:43;;;;;;;50.22;18.95;;;11.00;99.90;;;;;;5070926;28;20025;-76
2021/08/27 00:43:11;;;;;;;72.78;22.45;;;11.10;99.90;;;;;;5167011;27;20538;-76
2021/08/27 00:45:43;;;;;;;133.07;26.42;;;11.10;99.90;;;;;;5157950;27;20030;-76
2021/08/27 00:48:10;;;;;;;69.13;23.83;;;11.00;99.90;;;;;;5176774;27;20507;-76
2021/08/27 00:50:37;;;;;;;69.50;22.85;;;11.00;99.90;;;;;;5176288;27;20264;-76
2021/08/27 00:53:03;;;;;;;115.88;23.77;;;11.10;99.90;;;;;;5157862;27;20026;-76
2021/08/27 00:55:28;;;;;;;52.40;22.05;;;11.00;99.90;;;;;;5176424;27;20395;-76
2021/08/27 00:57:55;;;;;;;57.47;22.13;;;11.10;99.90;;;;;;5157857;27;20033;-78
2021/08/27 01:00:21;;;;;;;60.45;23.23;;;11.10;99.90;;;;;;5123242;27;20032;-76
2021/08/27 01:02:47;;;;;;;62.35;25.67;;;11.10;99.90;;;;;;5070689;28;20043;-76
2021/08/27 01:05:12;;;;;;;67.47;25.27;;;11.10;99.90;;;;;;5070647;28;20444;-76
2021/08/27 01:08:07;;;;;;;60.63;25.58;;;11.20;99.90;;;;;;5070621;28;20029;-77
2021/08/27 01:10:39;;;;;;;79.97;25.85;;;11.20;99.90;;;;;;5075374;27;20036;-76
2021/08/27 01:13:24;;;;;;;73.82;26.08;;;11.20;99.90;;;;;;5069488;27;20074;-76
2021/08/27 01:16:02;;;;;;;70.68;24.45;;;11.20;99.90;;;;;;5071018;27;20028;-75
2021/08/27 01:18:44;;;;;;;66.38;22.23;;;11.30;99.90;;;;;;5045937;27;20064;-76
2021/08/27 01:21:09;;;;;;;73.32;24.55;;;11.30;99.90;;;;;;5050239;28;20063;-77
2021/08/27 01:23:52;;;;;;;59.25;24.40;;;11.30;99.90;;;;;;5050244;28;20029;-77
2021/08/27 01:26:22;;;;;;;51.25;21.65;;;11.20;99.90;;;;;;5050453;28;20029;-76
2021/08/27 01:28:49;;;;;;;67.32;24.73;;;11.20;99.90;;;;;;5052434;28;20028;-76
2021/08/27 01:31:32;;;;;;;51.25;21.30;;;11.10;99.90;;;;;;5050186;28;20037;-76
2021/08/27 01:34:35;;;;;;;42.63;20.42;;;11.10;99.90;;;;;;5052678;28;20029;-77
2021/08/27 01:37:02;;;;;;;49.65;20.35;;;11.20;99.90;;;;;;5070322;28;20033;-76
2021/08/27 01:39:32;;;;;;;46.65;20.35;;;11.20;99.90;;;;;;5050168;28;20024;-76
2021/08/27 01:42:01;;;;;;;47.70;20.70;;;11.20;99.90;;;;;;5102512;27;20080;-76
2021/08/27 01:44:28;;;;;;;44.25;19.55;;;11.20;99.90;;;;;;5066888;27;20386;-76
2021/08/27 01:46:58;;;;;;;47.55;20.63;;;11.20;99.90;;;;;;5077082;27;20458;-76
2021/08/27 01:49:30;;;;;;;48.40;20.60;;;11.20;99.90;;;;;;5068768;28;20028;-76
2021/08/27 01:51:59;;;;;;;50.28;20.15;;;11.10;99.90;;;;;;5062759;28;20037;-76
2021/08/27 01:54:27;;;;;;;50.53;19.77;;;11.10;99.90;;;;;;5061402;28;20435;-76
2021/08/27 01:56:54;;;;;;;47.33;19.90;;;11.10;99.90;;;;;;5049981;28;20065;-76
2021/08/27 01:59:21;;;;;;;41.78;20.15;;;11.00;99.90;;;;;;5062986;28;20491;-77
2021/08/27 02:01:46;;;;;;;44.03;20.30;;;11.00;99.90;;;;;;5051877;28;20048;-77
2021/08/27 02:04:16;;;;;;;47.35;18.75;;;11.00;99.90;;;;;;5049812;28;20029;-76
2021/08/27 02:06:43;;;;;;;41.90;19.48;;;11.00;99.90;;;;;;5067818;28;20177;-76
2021/08/27 02:09:10;;;;;;;37.65;18.20;;;10.90;99.90;;;;;;5056350;28;20039;-77
2021/08/27 02:11:37;;;;;;;41.60;18.92;;;10.90;99.90;;;;;;5123380;27;20042;-76
2021/08/27 02:14:03;;;;;;;37.88;17.63;;;10.90;99.90;;;;;;5091310;27;20112;-76
2021/08/27 02:16:29;;;;;;;46.63;19.73;;;10.90;99.90;;;;;;5069410;28;20040;-76
2021/08/27 02:18:56;;;;;;;126.95;25.20;;;10.90;99.90;;;;;;5066252;27;20036;-76
2021/08/27 02:21:25;;;;;;;43.42;19.85;;;10.90;99.90;;;;;;5069528;28;20040;-76
2021/08/27 02:23:54;;;;;;;49.25;20.27;;;10.90;99.90;;;;;;5059243;28;20036;-77
2021/08/27 02:26:22;;;;;;;73.05;21.23;;;10.90;99.90;;;;;;5048792;28;20068;-76
2021/08/27 02:28:48;;;;;;;159.00;24.83;;;10.80;99.90;;;;;;5051711;28;20443;-76
2021/08/27 02:31:16;;;;;;;36.67;16.98;;;10.80;99.90;;;;;;5030897;28;20037;-76
2021/08/27 02:33:45;;;;;;;101.00;18.27;;;10.80;99.90;;;;;;5030904;28;20033;-76
2021/08/27 02:36:18;;;;;;;58.00;18.63;;;10.80;99.90;;;;;;5068651;28;20052;-76
2021/08/27 02:38:47;;;;;;;125.40;24.15;;;10.80;99.90;;;;;;5063206;28;20567;-76
2021/08/27 02:41:13;;;;;;;169.38;25.08;;;10.80;99.90;;;;;;5081140;27;20091;-76
2021/08/27 02:43:39;;;;;;;99.35;19.85;;;10.70;99.90;;;;;;5130421;27;20033;-77
2021/08/27 02:46:05;;;;;;;41.72;13.77;;;10.70;99.90;;;;;;5068554;28;20153;-76
2021/08/27 02:48:30;;;;;;;43.92;12.88;;;10.70;99.90;;;;;;5065269;28;20430;-77
2021/08/27 02:51:04;;;;;;;50.67;14.90;;;10.60;99.90;;;;;;5049344;28;20037;-76
2021/08/27 02:53:33;;;;;;;104.32;20.00;;;10.70;99.90;;;;;;5055533;28;20049;-76
2021/08/27 02:56:08;;;;;;;49.42;14.57;;;10.60;99.90;;;;;;5052737;28;20061;-76
2021/08/27 02:58:35;;;;;;;103.85;19.15;;;10.70;99.90;;;;;;5059145;28;20065;-76
2021/08/27 03:01:11;;;;;;;101.93;16.08;;;10.60;99.90;;;;;;5065977;28;20033;-76
2021/08/27 03:03:54;;;;;;;86.32;19.55;;;10.60;99.90;;;;;;5034698;28;20033;-76
2021/08/27 03:06:28;;;;;;;110.90;18.55;;;10.60;99.90;;;;;;5068399;28;20059;-76
2021/08/27 03:09:05;;;;;;;143.23;20.88;;;10.60;99.90;;;;;;5050102;28;20519;-76
2021/08/27 03:11:51;;;;;;;172.20;23.23;;;10.60;99.90;;;;;;5135869;27;20038;-76
2021/08/27 03:14:30;;;;;;;98.55;17.88;;;10.60;99.90;;;;;;5118270;27;20120;-76
2021/08/27 03:17:01;;;;;;;67.25;18.63;;;10.60;99.90;;;;;;5052426;27;20021;-76
2021/08/27 03:19:38;;;;;;;80.07;14.68;;;10.60;99.90;;;;;;5055882;28;20037;-76
2021/08/27 03:22:16;;;;;;;85.50;18.10;;;10.60;99.90;;;;;;5052396;28;20031;-76
2021/08/27 03:25:04;;;;;;;170.65;22.23;;;10.60;99.90;;;;;;5060586;28;20040;-77
2021/08/27 03:27:39;;;;;;;36.92;12.32;;;10.60;99.90;;;;;;5070475;28;20385;-76
2021/08/27 03:30:11;;;;;;;34.10;14.40;;;10.60;99.90;;;;;;5068217;28;20032;-76
2021/08/27 03:32:37;;;;;;;41.67;13.45;;;10.60;99.90;;;;;;5072046;28;20512;-76
2021/08/27 03:35:04;;;;;;;30.77;14.15;;;10.70;99.90;;;;;;5139347;27;20471;-76
2021/08/27 03:37:33;;;;;;;51.97;15.57;;;10.70;99.90;;;;;;5159324;27;20105;-76
2021/08/27 03:40:00;;;;;;;50.58;16.38;;;10.70;99.90;;;;;;5062825;27;20033;-76
2021/08/27 03:42:26;;;;;;;33.42;13.95;;;10.70;99.90;;;;;;5056023;28;20052;-77
2021/08/27 03:44:53;;;;;;;60.55;15.38;;;10.80;99.90;;;;;;5064845;28;20040;-76
2021/08/27 03:47:19;;;;;;;33.47;12.93;;;10.80;99.90;;;;;;5071824;28;20482;-77
2021/08/27 03:49:46;;;;;;;130.93;20.80;;;10.70;99.90;;;;;;5062801;28;20052;-77
2021/08/27 03:52:12;;;;;;;58.25;16.48;;;10.70;99.90;;;;;;5043542;28;20493;-77
2021/08/27 03:54:39;;;;;;;31.52;13.48;;;10.70;99.90;;;;;;5060612;28;20066;-77
2021/08/27 03:57:05;;;;;;;31.33;13.38;;;10.80;99.90;;;;;;5046036;28;20057;-76
2021/08/27 03:59:31;;;;;;;39.20;13.60;;;10.70;99.90;;;;;;5060652;28;20024;-76
2021/08/27 04:01:58;;;;;;;31.05;15.15;;;10.80;99.90;;;;;;5062905;27;20406;-76
2021/08/27 04:04:24;;;;;;;88.88;19.88;;;10.70;99.90;;;;;;5039783;28;20486;-76
2021/08/27 04:06:58;;;;;;;46.03;15.68;;;10.80;99.90;;;;;;5059988;28;20109;-77
2021/08/27 04:09:25;;;;;;;69.38;18.63;;;10.80;99.90;;;;;;5043502;27;20115;-76
2021/08/27 04:11:51;;;;;;;54.65;17.65;;;10.80;99.90;;;;;;5075329;27;20083;-76
2021/08/27 04:14:17;;;;;;;40.50;15.88;;;10.80;99.90;;;;;;5060750;28;20035;-76
2021/08/27 04:16:44;;;;;;;37.42;15.75;;;10.80;99.90;;;;;;5059284;27;20117;-76
2021/08/27 04:19:10;;;;;;;51.17;17.38;;;10.90;99.90;;;;;;5066698;28;20097;-76
2021/08/27 04:21:36;;;;;;;73.13;18.80;;;10.90;99.90;;;;;;5061027;28;20028;-76
2021/08/27 04:24:01;;;;;;;63.40;17.92;;;10.90;99.90;;;;;;5048435;28;20517;-77
2021/08/27 04:26:27;;;;;;;56.55;18.42;;;10.90;99.90;;;;;;5061759;28;20453;-77
2021/08/27 04:28:53;;;;;;;55.03;18.40;;;10.90;99.90;;;;;;5063582;28;20036;-76
2021/08/27 04:31:18;;;;;;;52.78;18.17;;;10.90;99.90;;;;;;5063363;28;20026;-76
2021/08/27 04:33:44;;;;;;;55.10;19.08;;;10.90;99.90;;;;;;5064649;27;20063;-77
2021/08/27 04:36:10;;;;;;;45.83;18.60;;;10.90;99.90;;;;;;5062749;28;20066;-76
2021/08/27 04:38:35;;;;;;;49.95;18.52;;;10.90;99.90;;;;;;5065090;28;20485;-76
2021/08/27 04:41:01;;;;;;;43.85;18.83;;;10.90;99.90;;;;;;5049948;28;20119;-76
2021/08/27 04:43:26;;;;;;;58.35;19.42;;;10.90;99.90;;;;;;5042335;28;20532;-76
2021/08/27 04:45:52;;;;;;;41.88;17.13;;;10.90;99.90;;;;;;5058271;28;20587;-76
2021/08/27 04:48:20;;;;;;;47.38;20.02;;;10.90;99.90;;;;;;5038562;28;20029;-76
2021/08/27 04:50:46;;;;;;;49.97;20.45;;;10.90;99.90;;;;;;5061740;28;20032;-76
2021/08/27 04:53:11;;;;;;;46.97;19.23;;;11.00;99.90;;;;;;5058051;28;20040;-77
2021/08/27 04:55:37;;;;;;;44.83;21.55;;;11.00;99.90;;;;;;5058392;28;20371;-76
2021/08/27 04:58:03;;;;;;;52.75;20.25;;;11.00;99.90;;;;;;5035065;28;20033;-76
2021/08/27 05:00:29;;;;;;;41.88;19.60;;;11.10;99.90;;;;;;5036515;28;20139;-76
2021/08/27 05:02:54;;;;;;;53.28;23.17;;;11.00;99.90;;;;;;5117540;27;20030;-76
2021/08/27 05:05:20;;;;;;;42.67;19.00;;;11.10;99.90;;;;;;5068989;28;20489;-76
2021/08/27 05:07:46;;;;;;;64.32;21.80;;;11.10;99.90;;;;;;5068353;28;20048;-76
2021/08/27 05:10:12;;;;;;;57.10;22.63;;;11.10;99.90;;;;;;5050498;28;20489;-76
2021/08/27 05:12:38;;;;;;;50.70;20.13;;;11.10;99.90;;;;;;5050273;28;20045;-76
2021/08/27 05:15:05;;;;;;;52.60;21.80;;;11.10;99.90;;;;;;5031426;28;20078;-76
2021/08/27 05:17:30;;;;;;;78.05;26.00;;;11.10;99.90;;;;;;5050389;27;20108;-76
2021/08/27 05:19:56;;;;;;;63.17;24.85;;;11.20;99.90;;;;;;5050386;28;20136;-76
2021/08/27 05:22:22;;;;;;;57.08;24.02;;;11.30;99.90;;;;;;5032524;28;20037;-77
2021/08/27 05:24:47;;;;;;;70.13;24.23;;;11.30;99.90;;;;;;5049924;28;20487;-76
2021/08/27 05:27:13;;;;;;;63.60;25.25;;;11.30;99.90;;;;;;5050302;28;20040;-77
2021/08/27 05:29:38;;;;;;;56.88;25.77;;;11.30;99.90;;;;;;5052955;27;20036;-77
2021/08/27 05:32:05;;;;;;;58.13;25.73;;;11.40;99.90;;;;;;5069667;28;20047;-77
2021/08/27 05:34:30;;;;;;;65.18;26.10;;;11.40;99.90;;;;;;5051892;28;20033;-77
2021/08/27 05:36:56;;;;;;;62.08;24.55;;;11.40;99.90;;;;;;5061763;27;20045;-77
2021/08/27 05:39:22;;;;;;;52.45;21.95;;;11.40;99.90;;;;;;5065800;28;20028;-78
2021/08/27 05:41:47;;;;;;;52.95;23.13;;;11.40;99.90;;;;;;5040143;28;20482;-78
2021/08/27 05:44:13;;;;;;;54.42;23.13;;;11.40;99.90;;;;;;5052004;28;20037;-78
2021/08/27 05:46:39;;;;;;;60.58;24.95;;;11.50;99.90;;;;;;5052088;28;20386;-78
2021/08/27 05:49:04;;;;;;;50.35;23.13;;;11.50;99.90;;;;;;5064872;28;20031;-75
2021/08/27 05:51:30;;;;;;;58.47;23.90;;;11.50;99.90;;;;;;5066542;28;20486;-77
2021/08/27 05:53:56;;;;;;;54.13;23.20;;;11.60;99.90;;;;;;5047795;28;20397;-77
2021/08/27 05:56:22;;;;;;;43.92;20.70;;;11.80;99.90;;;;;;5049518;28;20036;-76
2021/08/27 05:58:48;;;;;;;47.47;22.00;;;11.80;99.90;;;;;;5068079;28;20112;-76
2021/08/27 06:01:14;;;;;;;37.80;18.48;;;11.90;99.90;;;;;;5076285;27;20028;-76
2021/08/27 06:03:40;;;;;;;43.78;20.17;;;12.10;99.90;;;;;;5066044;28;20465;-77
2021/08/27 06:06:05;;;;;;;39.42;19.52;;;12.20;99.90;;;;;;5066606;28;20100;-76
2021/08/27 06:08:31;;;;;;;32.35;17.92;;;12.30;99.90;;;;;;5048149;28;20389;-77
2021/08/27 06:10:57;;;;;;;32.88;17.23;;;12.40;99.90;;;;;;5066735;28;20051;-76
2021/08/27 06:13:23;;;;;;;40.47;20.02;;;12.50;99.90;;;;;;5066062;28;20542;-76
2021/08/27 06:15:49;;;;;;;34.78;18.90;;;12.70;99.90;;;;;;5164188;27;20030;-77
2021/08/27 06:18:14;;;;;;;40.10;20.25;;;12.70;99.90;;;;;;5174461;27;20052;-76
2021/08/27 06:20:40;;;;;;;35.45;18.45;;;12.70;99.90;;;;;;5175132;27;20101;-76
2021/08/27 06:23:06;;;;;;;32.00;17.38;;;12.60;99.90;;;;;;5175293;27;20041;-77
2021/08/27 06:25:31;;;;;;;32.60;16.75;;;12.60;99.90;;;;;;5175154;27;20027;-76
2021/08/27 06:27:57;;;;;;;39.85;19.33;;;12.60;99.90;;;;;;5179946;27;20026;-76
2021/08/27 06:30:23;;;;;;;34.72;18.23;;;12.60;99.90;;;;;;5132182;27;20399;-76
2021/08/27 06:32:48;;;;;;;31.73;17.42;;;12.60;99.90;;;;;;5073015;28;20040;-77
2021/08/27 06:35:15;;;;;;;37.92;20.42;;;12.70;99.90;;;;;;5073090;28;20024;-76
2021/08/27 06:40:24;;;;;;;34.53;19.60;;;12.80;99.90;;;;;;5072887;28;20398;-76
2021/08/27 06:42:50;;;;;;;32.97;18.05;;;13.00;99.90;;;;;;5072975;28;20029;-77
2021/08/27 06:45:15;;;;;;;36.00;20.85;;;13.10;99.90;;;;;;5054884;28;20032;-76
2021/08/27 06:47:41;;;;;;;31.60;18.05;;;13.20;99.90;;;;;;5072893;28;20033;-77
2021/08/27 06:50:07;;;;;;;36.95;21.10;;;13.20;99.90;;;;;;5079876;27;20470;-77
2021/08/27 06:52:33;;;;;;;55.22;24.98;;;13.20;99.90;;;;;;5054717;28;20572;-77
2021/08/27 06:54:59;;;;;;;46.50;24.92;;;13.20;99.90;;;;;;5054786;28;20042;-76
2021/08/27 06:57:24;;;;;;;51.42;25.33;;;13.20;99.90;;;;;;5072710;28;20532;-77
2021/08/27 06:59:50;;;;;;;67.07;29.67;;;13.30;99.90;;;;;;5072691;28;20055;-76
2021/08/27 07:02:16;;;;;;;69.53;34.60;;;13.40;99.90;;;;;;5072657;28;20097;-77
2021/08/27 07:04:42;;;;;;;69.57;31.83;;;13.40;99.90;;;;;;5072634;28;20489;-77
2021/08/27 07:07:07;;;;;;;62.70;29.13;;;13.50;99.90;;;;;;5053387;28;20107;-77
2021/08/27 07:09:33;;;;;;;59.65;30.70;;;13.40;99.90;;;;;;5070192;28;20549;-77
2021/08/27 07:11:59;;;;;;;59.53;29.83;;;13.40;99.90;;;;;;5070894;28;20036;-77
2021/08/27 07:14:24;;;;;;;62.72;31.20;;;13.40;99.90;;;;;;5070882;28;20028;-77
2021/08/27 07:16:50;;;;;;;62.88;30.67;;;13.50;99.90;;;;;;5054044;27;20408;-76
2021/08/27 07:19:16;;;;;;;68.78;32.80;;;13.60;99.90;;;;;;5088330;27;20044;-76
2021/08/27 07:21:41;;;;;;;61.10;31.05;;;13.60;99.90;;;;;;5073365;27;20035;-76
2021/08/27 07:24:07;;;;;;;56.95;27.48;;;13.60;99.90;;;;;;5072892;27;20043;-77
2021/08/27 07:26:32;;;;;;;56.45;26.58;;;13.60;99.90;;;;;;5054203;28;20035;-76
2021/08/27 07:28:58;;;;;;;46.72;25.75;;;13.60;99.90;;;;;;5072113;28;20025;-77
2021/08/27 07:31:24;;;;;;;58.88;31.15;;;13.60;99.90;;;;;;5072015;28;20033;-76
2021/08/27 07:33:49;;;;;;;66.32;32.35;;;13.60;99.90;;;;;;5068381;28;20393;-77
2021/08/27 07:36:15;;;;;;;72.30;34.65;;;13.70;99.90;;;;;;5047957;28;20033;-76
2021/08/27 07:38:41;;;;;;;84.07;40.33;;;13.80;99.90;;;;;;5043897;28;20021;-76
2021/08/27 07:41:07;;;;;;;80.20;42.70;;;13.80;99.90;;;;;;5034231;28;20089;-76
2021/08/27 07:43:32;;;;;;;79.03;38.08;;;13.90;99.90;;;;;;5069098;28;20044;-77
2021/08/27 07:45:58;;;;;;;75.57;39.13;;;14.00;99.90;;;;;;5071990;28;20032;-77
2021/08/27 07:48:25;;;;;;;78.15;37.55;;;14.10;99.90;;;;;;5064527;28;20120;-77
2021/08/27 07:50:51;;;;;;;65.72;34.92;;;14.20;99.90;;;;;;5142857;27;20045;-76
2021/08/27 07:53:17;;;;;;;69.72;37.88;;;14.30;99.90;;;;;;5177828;27;20422;-77
2021/08/27 07:55:42;;;;;;;71.25;36.45;;;14.40;99.90;;;;;;5177750;27;20027;-76
2021/08/27 07:58:09;;;;;;;63.63;33.42;;;14.40;99.90;;;;;;5177787;27;20026;-76
2021/08/27 08:00:35;;;;;;;64.03;33.55;;;14.40;99.90;;;;;;5177663;27;20136;-76
2021/08/27 08:03:00;;;;;;;58.17;31.23;;;14.40;99.90;;;;;;5136824;27;20049;-77
2021/08/27 08:05:27;;;;;;;55.53;30.88;;;14.40;99.90;;;;;;5071579;28;20039;-77
2021/08/27 08:07:52;;;;;;;55.58;29.60;;;14.30;99.90;;;;;;5053956;28;20043;-76
2021/08/27 08:10:18;;;;;;;61.28;32.28;;;14.20;99.90;;;;;;5053625;28;20024;-76
2021/08/27 08:12:44;;;;;;;61.40;31.75;;;14.30;99.90;;;;;;5071250;28;20049;-77
2021/08/27 08:15:10;;;;;;;65.95;29.80;;;14.30;99.90;;;;;;5070729;28;20039;-76
2021/08/27 08:17:35;;;;;;;59.03;30.48;;;14.40;99.90;;;;;;5068184;28;20387;-76
2021/08/27 08:20:01;;;;;;;62.03;33.63;;;14.50;99.90;;;;;;5041589;28;20028;-76
2021/08/27 08:22:27;;;;;;;55.63;29.10;;;14.50;99.90;;;;;;5060850;28;20033;-77
2021/08/27 08:24:53;;;;;;;53.50;29.65;;;14.50;99.90;;;;;;5061635;28;20490;-76
2021/08/27 08:27:18;;;;;;;52.70;26.55;;;14.40;99.90;;;;;;5060994;28;20041;-77
2021/08/27 08:29:44;;;;;;;48.08;24.90;;;14.40;99.90;;;;;;5037925;28;20029;-77
2021/08/27 08:32:10;;;;;;;50.55;26.60;;;14.40;99.90;;;;;;5013452;28;20041;-77
2021/08/27 08:34:36;;;;;;;51.83;26.63;;;14.40;99.90;;;;;;5013597;28;20021;-78
2021/08/27 08:37:02;;;;;;;43.30;23.83;;;14.30;99.90;;;;;;5013494;28;20041;-76
2021/08/27 08:39:27;;;;;;;47.10;24.50;;;14.40;99.90;;;;;;5031092;28;20035;-77
2021/08/27 08:41:54;;;;;;;43.42;24.00;;;14.30;99.90;;;;;;5031140;28;20026;-77
2021/08/27 08:44:20;;;;;;;47.60;25.80;;;14.30;99.90;;;;;;5030987;28;20034;-76
2021/08/27 08:46:47;;;;;;;48.78;26.83;;;14.30;99.90;;;;;;5030495;28;20041;-76
2021/08/27 08:49:14;;;;;;;49.13;25.90;;;14.30;99.90;;;;;;5016162;28;20045;-77
2021/08/27 08:51:48;;;;;;;43.90;24.10;;;14.40;99.90;;;;;;5032905;28;20033;-76
2021/08/27 08:54:16;;;;;;;46.13;22.60;;;14.50;99.90;;;;;;5041499;28;20493;-77
2021/08/27 08:56:43;;;;;;;36.45;21.38;;;14.40;99.90;;;;;;5040441;28;20044;-77
2021/08/27 08:59:09;;;;;;;37.00;21.90;;;14.30;99.90;;;;;;5021497;28;20033;-76
2021/08/27 09:01:34;;;;;;;32.35;18.95;;;14.30;99.90;;;;;;5048358;28;20036;-76
2021/08/27 09:04:03;;;;;;;33.78;20.35;;;14.30;99.90;;;;;;5033141;28;20396;-76
2021/08/27 09:06:30;;;;;;;32.83;18.27;;;14.30;99.90;;;;;;5047504;28;20031;-76
2021/08/27 09:09:00;;;;;;;33.42;18.67;;;14.30;99.90;;;;;;5013980;28;20033;-76
2021/08/27 09:11:27;;;;;;;30.98;18.27;;;14.40;99.90;;;;;;5045603;28;20037;-76
2021/08/27 09:13:59;;;;;;;26.75;17.08;;;14.30;99.90;;;;;;5025421;28;20037;-76
2021/08/27 09:16:36;;;;;;;24.87;15.83;;;14.50;99.90;;;;;;5031212;28;20062;-76
2021/08/27 09:19:02;;;;;;;25.38;15.35;;;14.50;99.90;;;;;;5066528;27;20051;-77
2021/08/27 09:21:36;;;;;;;22.73;16.33;;;14.50;99.90;;;;;;5070357;28;20077;-76
2021/08/27 09:24:14;;;;;;;27.20;17.65;;;14.60;99.90;;;;;;5057050;28;20025;-77
2021/08/27 09:26:42;;;;;;;30.02;16.58;;;14.60;99.90;;;;;;5039291;28;20040;-76
2021/08/27 09:29:07;;;;;;;33.55;18.45;;;14.60;99.90;;;;;;5070319;28;20043;-77
2021/08/27 09:31:35;;;;;;;32.00;18.50;;;14.60;99.90;;;;;;5052168;28;20119;-76
2021/08/27 09:34:02;;;;;;;28.58;18.15;;;14.70;99.90;;;;;;5058139;28;20036;-76
2021/08/27 09:36:29;;;;;;;30.38;19.73;;;14.70;99.90;;;;;;5050193;28;21078;-76
2021/08/27 09:39:07;;;;;;;34.50;20.75;;;14.80;99.90;;;;;;5032464;28;20119;-77
2021/08/27 09:41:34;;;;;;;32.95;20.77;;;14.80;99.90;;;;;;5136480;27;20110;-77
2021/08/27 09:44:00;;;;;;;38.35;22.13;;;14.90;99.90;;;;;;5174833;27;20022;-76
2021/08/27 09:46:35;;;;;;;43.65;23.02;;;14.90;99.90;;;;;;5156860;27;20023;-76
2021/08/27 09:49:05;;;;;;;35.22;22.52;;;14.90;99.90;;;;;;5113254;27;20485;-77
2021/08/27 09:51:47;;;;;;;35.17;21.98;;;14.90;99.90;;;;;;5093523;27;20052;-76
2021/08/27 09:54:23;;;;;;;32.53;21.77;;;14.90;99.90;;;;;;5175641;27;20479;-77
2021/08/27 09:56:53;;;;;;;33.78;19.70;;;14.80;99.90;;;;;;5156871;27;20030;-76
2021/08/27 09:59:31;;;;;;;33.22;20.13;;;14.70;99.90;;;;;;5156865;27;20121;-77
2021/08/27 10:01:57;;;;;;;61.63;36.85;;;14.70;99.90;;;;;;5175013;27;20041;-76
2021/08/27 10:04:22;;;;;;;38.67;23.58;;;14.80;99.90;;;;;;5175490;27;20034;-77
2021/08/27 10:06:48;;;;;;;39.65;25.13;;;14.80;99.90;;;;;;5175395;27;20041;-76
2021/08/27 10:09:14;;;;;;;34.80;22.48;;;14.80;99.90;;;;;;5175271;27;20038;-77
2021/08/27 10:11:40;;;;;;;20.10;13.95;;;14.70;99.90;;;;;;5085181;27;20043;-76
2021/08/27 10:14:06;;;;;;;18.17;13.27;;;14.60;99.90;;;;;;5068964;28;20040;-77
2021/08/27 10:16:33;;;;;;;26.05;17.17;;;14.50;99.90;;;;;;5051035;28;20431;-77
2021/08/27 10:18:59;;;;;;;24.52;15.90;;;14.50;99.90;;;;;;5068253;27;20064;-76
2021/08/27 10:21:26;;;;;;;16.58;11.35;;;14.50;99.90;;;;;;5049444;28;20367;-77
2021/08/27 10:23:52;;;;;;;18.48;14.52;;;14.40;99.90;;;;;;5066821;28;20375;-77
2021/08/27 10:26:20;;;;;;;14.98;11.63;;;14.30;99.90;;;;;;5067994;28;20081;-76
2021/08/27 10:28:47;;;;;;;21.88;16.15;;;14.30;99.90;;;;;;5067648;28;20033;-77
2021/08/27 10:31:13;;;;;;;23.20;16.58;;;14.30;99.90;;;;;;5050447;28;20025;-76
2021/08/27 10:33:39;;;;;;;24.70;18.60;;;14.40;99.90;;;;;;5068876;28;20058;-76
2021/08/27 10:36:10;;;;;;;18.77;16.02;;;14.40;99.90;;;;;;5068997;28;20374;-77
2021/08/27 10:38:47;;;;;;;25.05;18.73;;;14.40;99.90;;;;;;5088706;27;20123;-76
2021/08/27 10:41:16;;;;;;;17.73;14.98;;;14.40;99.90;;;;;;5050936;28;20028;-76
2021/08/27 10:43:51;;;;;;;22.58;17.10;;;14.50;99.90;;;;;;5065587;28;20033;-76
2021/08/27 10:46:17;;;;;;;22.00;17.02;;;14.50;99.90;;;;;;5067664;28;20045;-76
2021/08/27 10:48:51;;;;;;;21.42;17.65;;;14.50;99.90;;;;;;5050925;28;20028;-77
2021/08/27 10:51:37;;;;;;;20.25;14.38;;;14.50;99.90;;;;;;5067452;28;20056;-77
2021/08/27 10:54:05;;;;;;;27.17;23.70;;;14.50;99.90;;;;;;5054571;28;20462;-77
2021/08/27 10:56:49;;;;;;;15.15;11.55;;;14.50;99.90;;;;;;5050123;28;20033;-76
2021/08/27 10:59:20;;;;;;;17.70;12.43;;;14.50;99.90;;;;;;5066524;28;20037;-76
2021/08/27 11:01:59;;;;;;;16.83;11.60;;;14.50;99.90;;;;;;5066885;28;20029;-76
2021/08/27 11:04:25;;;;;;;15.57;11.13;;;14.50;99.90;;;;;;5052904;28;20032;-77
2021/08/27 11:06:59;;;;;;;12.82;9.82;;;14.50;99.90;;;;;;5070753;27;20489;-76
2021/08/27 11:09:32;;;;;;;16.40;11.60;;;14.60;99.90;;;;;;5048068;27;20478;-76
2021/08/27 11:12:12;;;;;;;15.32;10.98;;;14.50;99.90;;;;;;5032239;28;20496;-77
2021/08/27 11:14:40;;;;;;;15.30;11.25;;;14.50;99.90;;;;;;5066721;28;20543;-76
2021/08/27 11:17:08;;;;;;;14.05;11.05;;;14.50;99.90;;;;;;5056252;27;20032;-77
2021/08/27 11:19:34;;;;;;;17.80;11.32;;;14.50;99.90;;;;;;5050736;28;20032;-77
2021/08/27 11:22:09;;;;;;;16.67;11.90;;;14.50;99.90;;;;;;5050986;28;20415;-77
2021/08/27 11:24:36;;;;;;;14.98;10.73;;;14.50;99.90;;;;;;5051950;28;20041;-78
2021/08/27 11:27:19;;;;;;;14.20;11.05;;;14.40;99.90;;;;;;5039714;28;20036;-77
2021/08/27 11:29:48;;;;;;;17.20;12.65;;;14.40;99.90;;;;;;5069556;27;20035;-77
2021/08/27 11:32:16;;;;;;;20.30;12.85;;;14.40;99.90;;;;;;5085166;27;20055;-77
2021/08/27 11:34:58;;;;;;;18.05;13.05;;;14.40;99.90;;;;;;5105646;27;20493;-77
2021/08/27 11:37:31;;;;;;;16.40;11.70;;;14.40;99.90;;;;;;5064140;28;20040;-77
2021/08/27 11:39:58;;;;;;;15.55;12.15;;;14.40;99.90;;;;;;5034263;28;20033;-77
2021/08/27 11:42:24;;;;;;;18.40;12.77;;;14.50;99.90;;;;;;5052218;27;20031;-77
2021/08/27 11:45:16;;;;;;;20.35;14.23;;;14.50;99.90;;;;;;5049650;28;20135;-78
2021/08/27 11:47:43;;;;;;;19.87;12.23;;;14.60;99.90;;;;;;5050559;28;20033;-77
2021/08/27 11:50:11;;;;;;;18.17;11.85;;;14.60;99.90;;;;;;5031661;28;20025;-78
2021/08/27 11:52:38;;;;;;;20.42;12.65;;;14.60;99.90;;;;;;5032200;28;20397;-78
2021/08/27 11:55:05;;;;;;;23.58;13.65;;;14.60;99.90;;;;;;5026908;28;21376;-77
2021/08/27 11:57:31;;;;;;;19.02;12.52;;;14.70;99.90;;;;;;5050712;28;20076;-79
2021/08/27 12:00:08;;;;;;;15.02;11.10;;;14.70;99.90;;;;;;5049106;28;20037;-80
2021/08/27 12:02:34;;;;;;;14.32;10.35;;;14.80;99.90;;;;;;5050723;28;20036;-80
2021/08/27 12:05:02;;;;;;;15.90;10.55;;;14.70;99.90;;;;;;5049396;28;20033;-80
2021/08/27 12:07:29;;;;;;;17.40;10.85;;;14.70;99.90;;;;;;5075868;27;20104;-79
2021/08/27 12:10:14;;;;;;;13.85;10.25;;;14.80;99.90;;;;;;5049836;28;20029;-79
2021/08/27 12:12:43;;;;;;;13.82;10.85;;;14.80;99.90;;;;;;5051087;28;20052;-80
2021/08/27 12:15:14;;;;;;;15.00;10.57;;;14.90;99.90;;;;;;5068433;28;20081;-79
2021/08/27 12:17:50;;;;;;;14.60;10.07;;;14.90;99.90;;;;;;5068089;27;20447;-80
2021/08/27 12:20:17;;;;;;;18.35;12.43;;;14.90;99.90;;;;;;5064635;28;20492;-79
2021/08/27 12:22:44;;;;;;;15.77;11.23;;;15.00;99.90;;;;;;5075999;27;20077;-79
2021/08/27 12:25:18;;;;;;;12.57;10.10;;;15.00;99.90;;;;;;5067560;28;20024;-79
2021/08/27 12:27:49;;;;;;;13.00;9.73;;;15.00;99.90;;;;;;5069253;28;20040;-79
2021/08/27 12:30:16;;;;;;;15.93;11.48;;;15.10;99.90;;;;;;5050352;28;20358;-80
2021/08/27 12:32:43;;;;;;;19.20;13.52;;;15.20;99.90;;;;;;5077200;27;20080;-79
2021/08/27 12:35:11;;;;;;;29.20;15.65;;;15.20;99.90;;;;;;5068454;28;20419;-79